sensor_id;sensor_type;location;lat;lon;timestamp;temperature;humidity
23301;DHT22;11819;51.394;12.340;2023-04-06T00:02:02;4.80;78.10
23301;DHT22;11819;51.394;12.340;2023-04-06T00:04:27;4.80;77.90
23301;DHT22;11819;51.394;12.340;2023-04-06T00:06:53;4.90;77.90
23301;DHT22;11819;51.394;12.340;2023-04-06T00:09:18;4.90;78.20
23301;DHT22;11819;51.394;12.340;2023-04-06T00:11:44;4.90;78.40
23301;DHT22;11819;51.394;12.340;2023-04-06T00:14:09;5.00;78.70
23301;DHT22;11819;51.394;12.340;2023-04-06T00:16:35;4.90;79.10
23301;DHT22;11819;51.394;12.340;2023-04-06T00:19:01;4.90;79.50
23301;DHT22;11819;51.394;12.340;2023-04-06T00:21:26;4.90;79.70
23301;DHT22;11819;51.394;12.340;2023-04-06T00:23:54;4.90;79.50
23301;DHT22;11819;51.394;12.340;2023-04-06T00:26:19;4.90;79.40
23301;DHT22;11819;51.394;12.340;2023-04-06T00:28:46;4.90;78.50
23301;DHT22;11819;51.394;12.340;2023-04-06T00:31:12;4.90;78.30
23301;DHT22;11819;51.394;12.340;2023-04-06T00:33:38;4.90;78.20
23301;DHT22;11819;51.394;12.340;2023-04-06T00:36:03;4.90;78.20
23301;DHT22;11819;51.394;12.340;2023-04-06T00:38:30;4.90;78.20
23301;DHT22;11819;51.394;12.340;2023-04-06T00:40:57;4.90;78.10
23301;DHT22;11819;51.394;12.340;2023-04-06T00:43:23;4.90;78.20
23301;DHT22;11819;51.394;12.340;2023-04-06T00:45:49;5.00;78.30
23301;DHT22;11819;51.394;12.340;2023-04-06T00:48:16;5.00;78.30
23301;DHT22;11819;51.394;12.340;2023-04-06T00:50:43;5.00;78.30
23301;DHT22;11819;51.394;12.340;2023-04-06T00:53:08;5.00;78.40
23301;DHT22;11819;51.394;12.340;2023-04-06T00:55:34;5.00;78.60
23301;DHT22;11819;51.394;12.340;2023-04-06T00:58:01;5.00;78.80
23301;DHT22;11819;51.394;12.340;2023-04-06T01:00:32;5.00;79.20
23301;DHT22;11819;51.394;12.340;2023-04-06T01:03:00;5.00;79.50
23301;DHT22;11819;51.394;12.340;2023-04-06T01:05:35;5.00;79.70
23301;DHT22;11819;51.394;12.340;2023-04-06T01:08:07;5.00;79.90
23301;DHT22;11819;51.394;12.340;2023-04-06T01:10:33;5.00;80.30
23301;DHT22;11819;51.394;12.340;2023-04-06T01:13:09;5.00;80.30
23301;DHT22;11819;51.394;12.340;2023-04-06T01:15:46;5.00;80.20
23301;DHT22;11819;51.394;12.340;2023-04-06T01:18:25;5.00;80.00
23301;DHT22;11819;51.394;12.340;2023-04-06T01:20:57;5.10;80.00
23301;DHT22;11819;51.394;12.340;2023-04-06T01:23:25;5.10;79.70
23301;DHT22;11819;51.394;12.340;2023-04-06T01:25:51;5.10;79.70
23301;DHT22;11819;51.394;12.340;2023-04-06T01:28:16;5.10;79.50
23301;DHT22;11819;51.394;12.340;2023-04-06T01:30:52;5.10;79.60
23301;DHT22;11819;51.394;12.340;2023-04-06T01:33:36;5.10;79.50
23301;DHT22;11819;51.394;12.340;2023-04-06T01:36:06;5.10;79.20
23301;DHT22;11819;51.394;12.340;2023-04-06T01:38:33;5.10;79.30
23301;DHT22;11819;51.394;12.340;2023-04-06T01:40:59;5.10;79.50
23301;DHT22;11819;51.394;12.340;2023-04-06T01:43:29;5.10;79.70
23301;DHT22;11819;51.394;12.340;2023-04-06T01:46:02;5.10;80.00
23301;DHT22;11819;51.394;12.340;2023-04-06T01:48:33;5.00;79.90
23301;DHT22;11819;51.394;12.340;2023-04-06T01:51:05;5.00;79.80
23301;DHT22;11819;51.394;12.340;2023-04-06T01:53:34;5.00;79.90
23301;DHT22;11819;51.394;12.340;2023-04-06T01:56:05;5.00;80.10
23301;DHT22;11819;51.394;12.340;2023-04-06T01:58:35;5.00;80.20
23301;DHT22;11819;51.394;12.340;2023-04-06T02:01:02;5.00;80.40
23301;DHT22;11819;51.394;12.340;2023-04-06T02:03:33;5.00;80.60
23301;DHT22;11819;51.394;12.340;2023-04-06T02:06:05;5.00;81.30
23301;DHT22;11819;51.394;12.340;2023-04-06T02:08:37;5.00;81.10
23301;DHT22;11819;51.394;12.340;2023-04-06T02:11:03;5.00;81.10
23301;DHT22;11819;51.394;12.340;2023-04-06T02:13:33;5.00;81.30
23301;DHT22;11819;51.394;12.340;2023-04-06T02:16:01;5.00;81.40
23301;DHT22;11819;51.394;12.340;2023-04-06T02:18:30;5.00;81.50
23301;DHT22;11819;51.394;12.340;2023-04-06T02:20:56;5.00;81.60
23301;DHT22;11819;51.394;12.340;2023-04-06T02:23:21;4.90;81.50
23301;DHT22;11819;51.394;12.340;2023-04-06T02:25:47;4.90;81.60
23301;DHT22;11819;51.394;12.340;2023-04-06T02:28:13;4.90;81.60
23301;DHT22;11819;51.394;12.340;2023-04-06T02:30:39;4.90;81.60
23301;DHT22;11819;51.394;12.340;2023-04-06T02:33:06;4.90;81.70
23301;DHT22;11819;51.394;12.340;2023-04-06T02:35:41;4.90;81.80
23301;DHT22;11819;51.394;12.340;2023-04-06T02:38:08;4.90;81.90
23301;DHT22;11819;51.394;12.340;2023-04-06T02:40:34;4.90;82.00
23301;DHT22;11819;51.394;12.340;2023-04-06T02:43:11;4.90;82.20
23301;DHT22;11819;51.394;12.340;2023-04-06T02:45:37;4.90;82.20
23301;DHT22;11819;51.394;12.340;2023-04-06T02:48:03;4.90;82.20
23301;DHT22;11819;51.394;12.340;2023-04-06T02:50:31;4.90;82.10
23301;DHT22;11819;51.394;12.340;2023-04-06T02:53:00;5.00;81.80
23301;DHT22;11819;51.394;12.340;2023-04-06T02:55:26;5.00;81.70
23301;DHT22;11819;51.394;12.340;2023-04-06T02:57:52;5.00;81.70
23301;DHT22;11819;51.394;12.340;2023-04-06T03:00:22;5.00;81.80
23301;DHT22;11819;51.394;12.340;2023-04-06T03:02:48;4.90;81.70
23301;DHT22;11819;51.394;12.340;2023-04-06T03:05:16;4.90;81.80
23301;DHT22;11819;51.394;12.340;2023-04-06T03:07:43;4.90;81.90
23301;DHT22;11819;51.394;12.340;2023-04-06T03:10:16;4.90;82.00
23301;DHT22;11819;51.394;12.340;2023-04-06T03:12:44;4.80;82.10
23301;DHT22;11819;51.394;12.340;2023-04-06T03:15:13;4.80;82.20
23301;DHT22;11819;51.394;12.340;2023-04-06T03:17:43;4.80;82.30
23301;DHT22;11819;51.394;12.340;2023-04-06T03:20:18;4.80;82.20
23301;DHT22;11819;51.394;12.340;2023-04-06T03:22:44;4.80;82.30
23301;DHT22;11819;51.394;12.340;2023-04-06T03:25:13;4.80;82.40
23301;DHT22;11819;51.394;12.340;2023-04-06T03:27:41;4.70;82.40
23301;DHT22;11819;51.394;12.340;2023-04-06T03:30:11;4.70;82.50
23301;DHT22;11819;51.394;12.340;2023-04-06T03:32:37;4.70;82.60
23301;DHT22;11819;51.394;12.340;2023-04-06T03:35:03;4.80;82.10
23301;DHT22;11819;51.394;12.340;2023-04-06T03:37:30;4.90;81.50
23301;DHT22;11819;51.394;12.340;2023-04-06T03:40:00;4.90;81.00
23301;DHT22;11819;51.394;12.340;2023-04-06T03:42:25;4.90;80.80
23301;DHT22;11819;51.394;12.340;2023-04-06T03:44:58;4.90;80.50
23301;DHT22;11819;51.394;12.340;2023-04-06T03:47:25;4.90;80.00
23301;DHT22;11819;51.394;12.340;2023-04-06T03:49:54;4.90;79.80
23301;DHT22;11819;51.394;12.340;2023-04-06T03:52:20;4.80;79.80
23301;DHT22;11819;51.394;12.340;2023-04-06T03:54:50;4.80;79.90
23301;DHT22;11819;51.394;12.340;2023-04-06T03:57:15;4.80;80.00
23301;DHT22;11819;51.394;12.340;2023-04-06T03:59:41;4.70;80.00
23301;DHT22;11819;51.394;12.340;2023-04-06T04:02:07;4.70;80.10
23301;DHT22;11819;51.394;12.340;2023-04-06T04:04:32;4.60;80.40
23301;DHT22;11819;51.394;12.340;2023-04-06T04:06:58;4.50;80.60
23301;DHT22;11819;51.394;12.340;2023-04-06T04:09:23;4.40;80.80
23301;DHT22;11819;51.394;12.340;2023-04-06T04:11:50;4.40;81.00
23301;DHT22;11819;51.394;12.340;2023-04-06T04:14:16;4.40;81.20
23301;DHT22;11819;51.394;12.340;2023-04-06T04:16:41;4.30;81.30
23301;DHT22;11819;51.394;12.340;2023-04-06T04:19:07;4.30;81.40
23301;DHT22;11819;51.394;12.340;2023-04-06T04:21:33;4.30;81.50
23301;DHT22;11819;51.394;12.340;2023-04-06T04:24:07;4.30;81.50
23301;DHT22;11819;51.394;12.340;2023-04-06T04:26:34;4.40;81.60
23301;DHT22;11819;51.394;12.340;2023-04-06T04:29:00;4.40;81.30
23301;DHT22;11819;51.394;12.340;2023-04-06T04:31:25;4.50;81.20
23301;DHT22;11819;51.394;12.340;2023-04-06T04:33:56;4.50;81.00
23301;DHT22;11819;51.394;12.340;2023-04-06T04:36:29;4.50;81.10
23301;DHT22;11819;51.394;12.340;2023-04-06T04:38:57;4.50;81.00
23301;DHT22;11819;51.394;12.340;2023-04-06T04:41:24;4.50;81.00
23301;DHT22;11819;51.394;12.340;2023-04-06T04:43:50;4.50;81.00
23301;DHT22;11819;51.394;12.340;2023-04-06T04:46:22;4.40;81.20
23301;DHT22;11819;51.394;12.340;2023-04-06T04:48:47;4.40;81.20
23301;DHT22;11819;51.394;12.340;2023-04-06T04:51:13;4.40;81.30
23301;DHT22;11819;51.394;12.340;2023-04-06T04:53:54;4.30;81.30
23301;DHT22;11819;51.394;12.340;2023-04-06T04:56:24;4.40;81.60
23301;DHT22;11819;51.394;12.340;2023-04-06T04:58:57;4.30;81.60
23301;DHT22;11819;51.394;12.340;2023-04-06T05:01:25;4.30;81.70
23301;DHT22;11819;51.394;12.340;2023-04-06T05:03:54;4.30;81.70
23301;DHT22;11819;51.394;12.340;2023-04-06T05:06:21;4.30;81.90
23301;DHT22;11819;51.394;12.340;2023-04-06T05:08:47;4.30;81.80
23301;DHT22;11819;51.394;12.340;2023-04-06T05:11:13;4.40;82.00
23301;DHT22;11819;51.394;12.340;2023-04-06T05:13:46;4.30;82.00
23301;DHT22;11819;51.394;12.340;2023-04-06T05:16:20;4.30;82.00
23301;DHT22;11819;51.394;12.340;2023-04-06T05:18:47;4.30;82.10
23301;DHT22;11819;51.394;12.340;2023-04-06T05:21:14;4.20;82.10
23301;DHT22;11819;51.394;12.340;2023-04-06T05:23:51;4.20;82.30
23301;DHT22;11819;51.394;12.340;2023-04-06T05:26:17;4.20;82.40
23301;DHT22;11819;51.394;12.340;2023-04-06T05:28:43;4.20;82.60
23301;DHT22;11819;51.394;12.340;2023-04-06T05:31:10;4.20;82.80
23301;DHT22;11819;51.394;12.340;2023-04-06T05:33:44;4.30;82.90
23301;DHT22;11819;51.394;12.340;2023-04-06T05:36:14;4.30;82.80
23301;DHT22;11819;51.394;12.340;2023-04-06T05:38:42;4.30;82.70
23301;DHT22;11819;51.394;12.340;2023-04-06T05:41:28;4.30;82.80
23301;DHT22;11819;51.394;12.340;2023-04-06T05:43:54;4.30;82.90
23301;DHT22;11819;51.394;12.340;2023-04-06T05:46:24;4.30;83.00
23301;DHT22;11819;51.394;12.340;2023-04-06T05:48:52;4.30;83.10
23301;DHT22;11819;51.394;12.340;2023-04-06T05:51:23;4.30;83.20
23301;DHT22;11819;51.394;12.340;2023-04-06T05:53:49;4.30;83.40
23301;DHT22;11819;51.394;12.340;2023-04-06T05:56:15;4.30;83.60
23301;DHT22;11819;51.394;12.340;2023-04-06T05:58:42;4.30;83.80
23301;DHT22;11819;51.394;12.340;2023-04-06T06:01:11;4.30;84.00
23301;DHT22;11819;51.394;12.340;2023-04-06T06:03:41;4.30;84.20
23301;DHT22;11819;51.394;12.340;2023-04-06T06:06:08;4.40;84.30
23301;DHT22;11819;51.394;12.340;2023-04-06T06:08:48;4.40;84.30
23301;DHT22;11819;51.394;12.340;2023-04-06T06:11:16;4.40;84.30
23301;DHT22;11819;51.394;12.340;2023-04-06T06:13:42;4.50;84.30
23301;DHT22;11819;51.394;12.340;2023-04-06T06:16:09;4.60;84.40
23301;DHT22;11819;51.394;12.340;2023-04-06T06:18:41;4.70;83.70
23301;DHT22;11819;51.394;12.340;2023-04-06T06:21:07;4.90;83.10
23301;DHT22;11819;51.394;12.340;2023-04-06T06:23:33;5.00;82.60
23301;DHT22;11819;51.394;12.340;2023-04-06T06:25:58;5.20;81.80
23301;DHT22;11819;51.394;12.340;2023-04-06T06:28:25;5.30;81.10
23301;DHT22;11819;51.394;12.340;2023-04-06T06:30:52;5.40;80.70
23301;DHT22;11819;51.394;12.340;2023-04-06T06:33:21;5.50;80.20
23301;DHT22;11819;51.394;12.340;2023-04-06T06:35:49;5.60;79.60
23301;DHT22;11819;51.394;12.340;2023-04-06T06:38:17;5.80;79.00
23301;DHT22;11819;51.394;12.340;2023-04-06T06:40:43;5.80;77.40
23301;DHT22;11819;51.394;12.340;2023-04-06T06:43:09;5.90;76.30
23301;DHT22;11819;51.394;12.340;2023-04-06T06:45:50;5.90;74.80
23301;DHT22;11819;51.394;12.340;2023-04-06T06:48:16;5.90;74.10
23301;DHT22;11819;51.394;12.340;2023-04-06T06:50:42;6.00;72.80
23301;DHT22;11819;51.394;12.340;2023-04-06T06:53:08;6.00;72.20
23301;DHT22;11819;51.394;12.340;2023-04-06T06:55:34;6.10;72.00
23301;DHT22;11819;51.394;12.340;2023-04-06T06:58:00;6.10;70.90
23301;DHT22;11819;51.394;12.340;2023-04-06T07:00:25;6.10;70.00
23301;DHT22;11819;51.394;12.340;2023-04-06T07:02:53;6.10;69.10
23301;DHT22;11819;51.394;12.340;2023-04-06T07:05:19;6.10;68.70
23301;DHT22;11819;51.394;12.340;2023-04-06T07:07:45;6.10;68.80
23301;DHT22;11819;51.394;12.340;2023-04-06T07:10:10;6.20;69.00
23301;DHT22;11819;51.394;12.340;2023-04-06T07:12:37;6.20;68.50
23301;DHT22;11819;51.394;12.340;2023-04-06T07:15:03;6.30;68.30
23301;DHT22;11819;51.394;12.340;2023-04-06T07:17:30;6.40;68.20
23301;DHT22;11819;51.394;12.340;2023-04-06T07:19:55;6.50;67.70
23301;DHT22;11819;51.394;12.340;2023-04-06T07:22:21;6.50;67.40
23301;DHT22;11819;51.394;12.340;2023-04-06T07:24:47;6.60;66.00
23301;DHT22;11819;51.394;12.340;2023-04-06T07:27:13;6.60;65.50
23301;DHT22;11819;51.394;12.340;2023-04-06T07:29:39;6.60;65.70
23301;DHT22;11819;51.394;12.340;2023-04-06T07:32:04;6.70;66.80
23301;DHT22;11819;51.394;12.340;2023-04-06T07:34:31;6.70;65.00
23301;DHT22;11819;51.394;12.340;2023-04-06T07:36:57;6.70;65.10
23301;DHT22;11819;51.394;12.340;2023-04-06T07:39:23;6.70;64.60
23301;DHT22;11819;51.394;12.340;2023-04-06T07:41:53;6.70;64.30
23301;DHT22;11819;51.394;12.340;2023-04-06T07:44:19;6.70;63.50
23301;DHT22;11819;51.394;12.340;2023-04-06T07:46:45;6.70;62.40
23301;DHT22;11819;51.394;12.340;2023-04-06T07:49:11;6.70;61.70
23301;DHT22;11819;51.394;12.340;2023-04-06T07:51:38;6.80;62.00
23301;DHT22;11819;51.394;12.340;2023-04-06T07:54:07;6.90;62.30
23301;DHT22;11819;51.394;12.340;2023-04-06T07:56:33;6.90;62.70
23301;DHT22;11819;51.394;12.340;2023-04-06T07:58:59;7.00;62.70
23301;DHT22;11819;51.394;12.340;2023-04-06T08:01:27;7.10;61.70
23301;DHT22;11819;51.394;12.340;2023-04-06T08:03:53;7.10;60.60
23301;DHT22;11819;51.394;12.340;2023-04-06T08:06:21;7.10;60.50
23301;DHT22;11819;51.394;12.340;2023-04-06T08:08:46;7.10;60.10
23301;DHT22;11819;51.394;12.340;2023-04-06T08:11:12;7.10;59.70
23301;DHT22;11819;51.394;12.340;2023-04-06T08:13:39;7.10;60.10
23301;DHT22;11819;51.394;12.340;2023-04-06T08:16:05;7.20;60.90
23301;DHT22;11819;51.394;12.340;2023-04-06T08:18:31;7.20;61.40
23301;DHT22;11819;51.394;12.340;2023-04-06T08:20:56;7.30;61.60
23301;DHT22;11819;51.394;12.340;2023-04-06T08:23:22;7.30;60.90
23301;DHT22;11819;51.394;12.340;2023-04-06T08:25:49;7.40;61.00
23301;DHT22;11819;51.394;12.340;2023-04-06T08:28:15;7.40;61.30
23301;DHT22;11819;51.394;12.340;2023-04-06T08:30:42;7.50;61.40
23301;DHT22;11819;51.394;12.340;2023-04-06T08:33:08;7.60;61.20
23301;DHT22;11819;51.394;12.340;2023-04-06T08:35:34;7.60;60.50
23301;DHT22;11819;51.394;12.340;2023-04-06T08:38:00;7.70;60.50
23301;DHT22;11819;51.394;12.340;2023-04-06T08:40:26;7.70;60.70
23301;DHT22;11819;51.394;12.340;2023-04-06T08:42:54;7.80;60.70
23301;DHT22;11819;51.394;12.340;2023-04-06T08:45:20;7.80;59.30
23301;DHT22;11819;51.394;12.340;2023-04-06T08:47:48;7.80;59.70
23301;DHT22;11819;51.394;12.340;2023-04-06T08:50:17;7.90;59.50
23301;DHT22;11819;51.394;12.340;2023-04-06T08:52:47;8.00;59.70
23301;DHT22;11819;51.394;12.340;2023-04-06T08:55:13;8.00;59.80
23301;DHT22;11819;51.394;12.340;2023-04-06T08:57:39;8.10;60.00
23301;DHT22;11819;51.394;12.340;2023-04-06T09:00:09;8.10;59.80
23301;DHT22;11819;51.394;12.340;2023-04-06T09:02:38;8.20;59.70
23301;DHT22;11819;51.394;12.340;2023-04-06T09:05:04;8.20;59.60
23301;DHT22;11819;51.394;12.340;2023-04-06T09:07:30;8.30;59.60
23301;DHT22;11819;51.394;12.340;2023-04-06T09:09:56;8.30;59.40
23301;DHT22;11819;51.394;12.340;2023-04-06T09:12:29;8.40;59.60
23301;DHT22;11819;51.394;12.340;2023-04-06T09:14:56;8.40;59.40
23301;DHT22;11819;51.394;12.340;2023-04-06T09:17:29;8.50;59.20
23301;DHT22;11819;51.394;12.340;2023-04-06T09:19:56;8.50;58.50
23301;DHT22;11819;51.394;12.340;2023-04-06T09:22:22;8.50;58.00
23301;DHT22;11819;51.394;12.340;2023-04-06T09:24:52;8.50;58.00
23301;DHT22;11819;51.394;12.340;2023-04-06T09:27:30;8.60;57.90
23301;DHT22;11819;51.394;12.340;2023-04-06T09:30:22;8.50;56.60
23301;DHT22;11819;51.394;12.340;2023-04-06T09:32:51;8.50;56.80
23301;DHT22;11819;51.394;12.340;2023-04-06T09:35:18;8.60;57.00
23301;DHT22;11819;51.394;12.340;2023-04-06T09:37:46;8.60;57.10
23301;DHT22;11819;51.394;12.340;2023-04-06T09:40:14;8.70;56.80
23301;DHT22;11819;51.394;12.340;2023-04-06T09:42:45;8.80;56.60
23301;DHT22;11819;51.394;12.340;2023-04-06T09:45:12;8.80;55.90
23301;DHT22;11819;51.394;12.340;2023-04-06T09:47:40;8.90;54.40
23301;DHT22;11819;51.394;12.340;2023-04-06T09:50:09;9.00;53.10
23301;DHT22;11819;51.394;12.340;2023-04-06T09:52:50;9.00;53.20
23301;DHT22;11819;51.394;12.340;2023-04-06T09:55:36;9.10;53.80
23301;DHT22;11819;51.394;12.340;2023-04-06T09:58:06;9.10;53.60
23301;DHT22;11819;51.394;12.340;2023-04-06T10:03:51;9.20;53.30
23301;DHT22;11819;51.394;12.340;2023-04-06T10:06:21;9.30;53.30
23301;DHT22;11819;51.394;12.340;2023-04-06T10:08:50;9.40;52.00
23301;DHT22;11819;51.394;12.340;2023-04-06T10:11:16;9.40;50.80
23301;DHT22;11819;51.394;12.340;2023-04-06T10:13:44;9.40;50.10
23301;DHT22;11819;51.394;12.340;2023-04-06T10:16:12;9.40;50.20
23301;DHT22;11819;51.394;12.340;2023-04-06T10:18:43;9.40;50.30
23301;DHT22;11819;51.394;12.340;2023-04-06T10:21:12;9.40;50.50
23301;DHT22;11819;51.394;12.340;2023-04-06T10:23:53;9.50;50.10
23301;DHT22;11819;51.394;12.340;2023-04-06T10:26:22;9.40;49.70
23301;DHT22;11819;51.394;12.340;2023-04-06T10:28:49;9.40;49.10
23301;DHT22;11819;51.394;12.340;2023-04-06T10:31:26;9.40;49.00
23301;DHT22;11819;51.394;12.340;2023-04-06T10:33:56;9.40;49.30
23301;DHT22;11819;51.394;12.340;2023-04-06T10:36:25;9.40;50.30
23301;DHT22;11819;51.394;12.340;2023-04-06T10:38:59;9.50;50.30
23301;DHT22;11819;51.394;12.340;2023-04-06T10:43:59;9.60;49.80
23301;DHT22;11819;51.394;12.340;2023-04-06T10:46:26;9.60;49.80
23301;DHT22;11819;51.394;12.340;2023-04-06T10:48:52;9.50;49.90
23301;DHT22;11819;51.394;12.340;2023-04-06T10:51:18;9.50;49.90
23301;DHT22;11819;51.394;12.340;2023-04-06T10:53:47;9.60;49.70
23301;DHT22;11819;51.394;12.340;2023-04-06T10:56:18;9.70;48.80
23301;DHT22;11819;51.394;12.340;2023-04-06T10:58:47;9.70;48.40
23301;DHT22;11819;51.394;12.340;2023-04-06T11:01:17;9.70;48.70
23301;DHT22;11819;51.394;12.340;2023-04-06T11:03:44;9.80;49.60
23301;DHT22;11819;51.394;12.340;2023-04-06T11:06:10;9.80;48.70
23301;DHT22;11819;51.394;12.340;2023-04-06T11:08:37;9.90;48.70
23301;DHT22;11819;51.394;12.340;2023-04-06T11:11:15;9.90;49.00
23301;DHT22;11819;51.394;12.340;2023-04-06T11:13:49;10.00;49.70
23301;DHT22;11819;51.394;12.340;2023-04-06T11:16:18;10.10;50.30
23301;DHT22;11819;51.394;12.340;2023-04-06T11:19:03;10.10;50.90
23301;DHT22;11819;51.394;12.340;2023-04-06T11:21:39;10.20;51.00
23301;DHT22;11819;51.394;12.340;2023-04-06T11:26:31;10.40;49.20
23301;DHT22;11819;51.394;12.340;2023-04-06T11:28:56;10.40;49.70
23301;DHT22;11819;51.394;12.340;2023-04-06T11:31:25;10.50;50.00
23301;DHT22;11819;51.394;12.340;2023-04-06T11:33:58;10.50;49.60
23301;DHT22;11819;51.394;12.340;2023-04-06T11:36:27;10.60;49.30
23301;DHT22;11819;51.394;12.340;2023-04-06T11:38:56;10.60;48.30
23301;DHT22;11819;51.394;12.340;2023-04-06T11:41:23;10.60;47.80
23301;DHT22;11819;51.394;12.340;2023-04-06T11:43:55;10.70;47.60
23301;DHT22;11819;51.394;12.340;2023-04-06T11:46:21;10.70;47.40
23301;DHT22;11819;51.394;12.340;2023-04-06T11:48:46;10.70;47.30
23301;DHT22;11819;51.394;12.340;2023-04-06T11:51:22;10.70;47.30
23301;DHT22;11819;51.394;12.340;2023-04-06T11:53:49;10.80;47.30
23301;DHT22;11819;51.394;12.340;2023-04-06T11:56:25;10.80;47.20
23301;DHT22;11819;51.394;12.340;2023-04-06T11:58:51;10.90;46.70
23301;DHT22;11819;51.394;12.340;2023-04-06T12:01:17;10.80;47.00
23301;DHT22;11819;51.394;12.340;2023-04-06T12:03:42;10.80;47.40
23301;DHT22;11819;51.394;12.340;2023-04-06T12:06:08;10.90;48.00
23301;DHT22;11819;51.394;12.340;2023-04-06T12:08:35;10.90;48.10
23301;DHT22;11819;51.394;12.340;2023-04-06T12:11:00;11.10;48.20
23301;DHT22;11819;51.394;12.340;2023-04-06T12:13:26;11.20;48.10
23301;DHT22;11819;51.394;12.340;2023-04-06T12:15:52;11.30;47.70
23301;DHT22;11819;51.394;12.340;2023-04-06T12:18:18;11.40;47.40
23301;DHT22;11819;51.394;12.340;2023-04-06T12:20:43;11.50;46.50
23301;DHT22;11819;51.394;12.340;2023-04-06T12:23:09;11.50;46.40
23301;DHT22;11819;51.394;12.340;2023-04-06T12:25:35;11.60;46.50
23301;DHT22;11819;51.394;12.340;2023-04-06T12:28:01;11.60;46.70
23301;DHT22;11819;51.394;12.340;2023-04-06T12:30:27;11.80;47.50
23301;DHT22;11819;51.394;12.340;2023-04-06T12:32:52;11.90;47.50
23301;DHT22;11819;51.394;12.340;2023-04-06T12:35:18;12.00;46.90
23301;DHT22;11819;51.394;12.340;2023-04-06T12:37:43;12.20;46.50
23301;DHT22;11819;51.394;12.340;2023-04-06T12:40:09;12.30;45.60
23301;DHT22;11819;51.394;12.340;2023-04-06T12:42:38;12.40;46.00
23301;DHT22;11819;51.394;12.340;2023-04-06T12:45:04;12.50;45.20
23301;DHT22;11819;51.394;12.340;2023-04-06T12:47:30;12.70;44.90
23301;DHT22;11819;51.394;12.340;2023-04-06T12:49:56;12.70;43.40
23301;DHT22;11819;51.394;12.340;2023-04-06T12:52:21;12.70;43.30
23301;DHT22;11819;51.394;12.340;2023-04-06T12:54:47;12.80;43.60
23301;DHT22;11819;51.394;12.340;2023-04-06T12:57:13;13.00;44.20
23301;DHT22;11819;51.394;12.340;2023-04-06T12:59:43;13.30;44.20
23301;DHT22;11819;51.394;12.340;2023-04-06T13:02:09;13.70;43.80
23301;DHT22;11819;51.394;12.340;2023-04-06T13:04:35;14.20;42.60
23301;DHT22;11819;51.394;12.340;2023-04-06T13:07:01;14.60;41.10
23301;DHT22;11819;51.394;12.340;2023-04-06T13:09:27;15.00;41.80
23301;DHT22;11819;51.394;12.340;2023-04-06T13:11:52;15.50;41.50
23301;DHT22;11819;51.394;12.340;2023-04-06T13:14:19;15.80;39.40
23301;DHT22;11819;51.394;12.340;2023-04-06T13:16:46;16.00;39.70
23301;DHT22;11819;51.394;12.340;2023-04-06T13:19:12;16.30;38.50
23301;DHT22;11819;51.394;12.340;2023-04-06T13:21:39;16.50;37.90
23301;DHT22;11819;51.394;12.340;2023-04-06T13:24:04;16.70;38.20
23301;DHT22;11819;51.394;12.340;2023-04-06T13:26:31;17.10;38.30
23301;DHT22;11819;51.394;12.340;2023-04-06T13:28:56;17.30;37.70
23301;DHT22;11819;51.394;12.340;2023-04-06T13:31:22;17.60;39.00
23301;DHT22;11819;51.394;12.340;2023-04-06T13:33:47;17.90;37.30
23301;DHT22;11819;51.394;12.340;2023-04-06T13:36:13;18.10;36.80
23301;DHT22;11819;51.394;12.340;2023-04-06T13:38:40;18.20;36.30
23301;DHT22;11819;51.394;12.340;2023-04-06T13:41:05;18.50;37.20
23301;DHT22;11819;51.394;12.340;2023-04-06T13:43:31;18.80;37.00
23301;DHT22;11819;51.394;12.340;2023-04-06T13:45:57;19.20;36.00
23301;DHT22;11819;51.394;12.340;2023-04-06T13:48:25;19.30;34.40
23301;DHT22;11819;51.394;12.340;2023-04-06T13:50:52;19.40;34.30
23301;DHT22;11819;51.394;12.340;2023-04-06T13:53:18;19.50;33.70
23301;DHT22;11819;51.394;12.340;2023-04-06T13:55:52;19.60;33.70
23301;DHT22;11819;51.394;12.340;2023-04-06T13:58:17;19.80;33.20
23301;DHT22;11819;51.394;12.340;2023-04-06T14:00:43;20.00;33.30
23301;DHT22;11819;51.394;12.340;2023-04-06T14:03:09;20.20;32.50
23301;DHT22;11819;51.394;12.340;2023-04-06T14:05:34;20.30;32.40
23301;DHT22;11819;51.394;12.340;2023-04-06T14:08:02;20.50;33.20
23301;DHT22;11819;51.394;12.340;2023-04-06T14:10:27;20.70;32.40
23301;DHT22;11819;51.394;12.340;2023-04-06T14:12:55;20.90;32.60
23301;DHT22;11819;51.394;12.340;2023-04-06T14:15:21;21.10;32.60
23301;DHT22;11819;51.394;12.340;2023-04-06T14:17:48;21.30;31.50
23301;DHT22;11819;51.394;12.340;2023-04-06T14:20:13;21.30;31.30
23301;DHT22;11819;51.394;12.340;2023-04-06T14:22:41;21.40;31.10
23301;DHT22;11819;51.394;12.340;2023-04-06T14:25:08;21.50;30.90
23301;DHT22;11819;51.394;12.340;2023-04-06T14:27:34;21.60;30.30
23301;DHT22;11819;51.394;12.340;2023-04-06T14:29:59;21.60;30.00
23301;DHT22;11819;51.394;12.340;2023-04-06T14:32:26;21.60;30.10
23301;DHT22;11819;51.394;12.340;2023-04-06T14:34:51;21.70;30.50
23301;DHT22;11819;51.394;12.340;2023-04-06T14:37:17;21.80;30.80
23301;DHT22;11819;51.394;12.340;2023-04-06T14:39:44;21.90;31.90
23301;DHT22;11819;51.394;12.340;2023-04-06T14:42:09;22.00;30.80
23301;DHT22;11819;51.394;12.340;2023-04-06T14:44:36;22.10;29.90
23301;DHT22;11819;51.394;12.340;2023-04-06T14:47:03;22.20;29.90
23301;DHT22;11819;51.394;12.340;2023-04-06T14:49:30;22.10;29.60
23301;DHT22;11819;51.394;12.340;2023-04-06T14:51:56;22.00;29.40
23301;DHT22;11819;51.394;12.340;2023-04-06T14:54:22;22.00;29.80
23301;DHT22;11819;51.394;12.340;2023-04-06T14:56:48;22.20;30.00
23301;DHT22;11819;51.394;12.340;2023-04-06T14:59:13;22.40;29.60
23301;DHT22;11819;51.394;12.340;2023-04-06T15:01:39;22.60;29.40
23301;DHT22;11819;51.394;12.340;2023-04-06T15:04:05;22.70;29.00
23301;DHT22;11819;51.394;12.340;2023-04-06T15:06:31;22.60;29.20
23301;DHT22;11819;51.394;12.340;2023-04-06T15:08:57;22.50;29.20
23301;DHT22;11819;51.394;12.340;2023-04-06T15:11:25;22.60;29.50
23301;DHT22;11819;51.394;12.340;2023-04-06T15:13:51;22.60;29.30
23301;DHT22;11819;51.394;12.340;2023-04-06T15:16:16;22.70;29.70
23301;DHT22;11819;51.394;12.340;2023-04-06T15:18:42;22.80;29.90
23301;DHT22;11819;51.394;12.340;2023-04-06T15:21:08;22.60;29.70
23301;DHT22;11819;51.394;12.340;2023-04-06T15:23:36;22.60;29.90
23301;DHT22;11819;51.394;12.340;2023-04-06T15:26:04;22.50;30.30
23301;DHT22;11819;51.394;12.340;2023-04-06T15:28:30;22.40;30.00
23301;DHT22;11819;51.394;12.340;2023-04-06T15:30:55;22.40;29.80
23301;DHT22;11819;51.394;12.340;2023-04-06T15:33:23;22.60;29.90
23301;DHT22;11819;51.394;12.340;2023-04-06T15:35:49;22.60;29.50
23301;DHT22;11819;51.394;12.340;2023-04-06T15:38:16;22.70;29.20
23301;DHT22;11819;51.394;12.340;2023-04-06T15:40:46;22.80;29.20